Time;durP1;ratioP1;P1;durP2;ratioP2;P2;SDS_P1;SDS_P2;PMS_P1;PMS_P2;Temp;Humidity;BMP_temperature;BMP_pressure;BME280_temperature;BME280_humidity;BME280_pressure;Samples;Min_cycle;Max_cycle;Signal;HPM_P1;HPM_P2
2022/08/16 00:02:00;;;;;;;6.93;4.97;;;22.70;75.40;;;;;;5093152;28;20837;-78
2022/08/16 00:04:26;;;;;;;8.85;5.80;;;22.60;75.70;;;;;;5076081;28;20098;-78
2022/08/16 00:06:52;;;;;;;7.85;5.75;;;22.60;75.70;;;;;;5093137;28;20026;-78
2022/08/16 00:09:18;;;;;;;7.97;6.07;;;22.60;75.70;;;;;;5093038;28;20032;-78
2022/08/16 00:11:45;;;;;;;10.23;6.07;;;22.50;75.80;;;;;;5093019;28;20028;-76
2022/08/16 00:14:14;;;;;;;11.93;5.57;;;22.50;75.80;;;;;;5058700;28;20538;-76
2022/08/16 00:16:40;;;;;;;9.68;5.90;;;22.40;76.10;;;;;;5092669;28;20031;-77
2022/08/16 00:19:05;;;;;;;11.98;6.15;;;22.40;76.30;;;;;;5094043;28;20024;-76
2022/08/16 00:21:32;;;;;;;8.30;6.40;;;22.40;76.60;;;;;;5059739;28;20042;-76
2022/08/16 00:23:57;;;;;;;11.15;6.38;;;22.40;76.60;;;;;;5075896;28;20441;-77
2022/08/16 00:26:24;;;;;;;11.50;7.15;;;22.30;76.60;;;;;;5093957;28;20096;-76
2022/08/16 00:28:50;;;;;;;13.30;7.15;;;22.30;76.90;;;;;;5075851;28;20302;-76
2022/08/16 00:31:16;;;;;;;7.45;5.90;;;22.30;77.10;;;;;;5092580;28;20032;-76
2022/08/16 00:33:42;;;;;;;10.32;6.82;;;22.30;77.30;;;;;;5092614;28;20032;-77
2022/08/16 00:36:07;;;;;;;12.93;7.07;;;22.20;77.40;;;;;;5093764;28;20112;-76
2022/08/16 00:38:33;;;;;;;9.50;6.72;;;22.20;77.50;;;;;;5092363;28;20419;-76
2022/08/16 00:40:59;;;;;;;11.68;6.75;;;22.20;77.70;;;;;;5075431;28;20032;-76
2022/08/16 00:43:30;;;;;;;9.43;7.15;;;22.20;78.00;;;;;;5075465;28;20020;-76
2022/08/16 00:46:08;;;;;;;11.00;6.78;;;22.20;78.20;;;;;;5092219;28;20024;-76
2022/08/16 00:48:34;;;;;;;10.25;6.40;;;22.10;78.30;;;;;;5093553;28;20118;-77
2022/08/16 00:51:01;;;;;;;12.40;6.40;;;22.10;78.30;;;;;;5092229;28;20153;-76
2022/08/16 00:53:27;;;;;;;10.25;6.93;;;22.00;78.60;;;;;;5093462;28;20153;-77
2022/08/16 00:55:55;;;;;;;10.77;7.20;;;22.10;78.70;;;;;;5092050;28;20062;-76
2022/08/16 00:58:25;;;;;;;8.70;6.63;;;22.00;78.90;;;;;;5093324;28;20024;-76
2022/08/16 01:00:51;;;;;;;11.05;7.13;;;22.00;79.10;;;;;;5092061;28;20020;-76
2022/08/16 01:03:19;;;;;;;9.68;7.28;;;21.90;79.10;;;;;;5092061;28;20034;-76
2022/08/16 01:05:45;;;;;;;9.07;6.80;;;21.90;79.20;;;;;;5093314;28;20024;-76
2022/08/16 01:08:14;;;;;;;9.52;7.05;;;21.90;79.40;;;;;;5075368;28;20097;-76
2022/08/16 01:10:40;;;;;;;11.15;7.15;;;21.90;79.50;;;;;;5091907;28;20016;-76
2022/08/16 01:13:10;;;;;;;9.75;7.15;;;21.80;79.60;;;;;;5075285;28;20034;-76
2022/08/16 01:15:41;;;;;;;9.52;7.22;;;21.80;79.80;;;;;;5093162;28;20030;-76
2022/08/16 01:18:09;;;;;;;10.05;7.20;;;21.80;80.00;;;;;;5091832;28;20082;-76
2022/08/16 01:20:42;;;;;;;9.18;7.13;;;21.70;80.00;;;;;;5091787;28;20117;-76
2022/08/16 01:23:16;;;;;;;12.03;7.10;;;21.70;80.00;;;;;;5093107;28;20024;-76
2022/08/16 01:25:46;;;;;;;10.68;7.78;;;21.70;80.10;;;;;;5095421;28;20611;-76
2022/08/16 01:28:14;;;;;;;10.77;6.65;;;21.60;80.10;;;;;;5096111;28;20016;-75
2022/08/16 01:30:44;;;;;;;13.85;7.93;;;21.60;80.30;;;;;;5095990;28;20027;-75
2022/08/16 01:33:10;;;;;;;10.80;6.65;;;21.60;80.50;;;;;;5096026;28;20492;-76
2022/08/16 01:36:00;;;;;;;11.95;7.22;;;21.60;80.60;;;;;;5095977;28;20058;-75
2022/08/16 01:38:35;;;;;;;11.27;7.35;;;21.60;80.90;;;;;;5095772;28;20062;-76
2022/08/16 01:41:09;;;;;;;11.10;7.55;;;21.50;81.00;;;;;;5095674;28;20062;-76
2022/08/16 01:43:37;;;;;;;11.48;8.10;;;21.50;81.20;;;;;;5097153;28;20024;-76
2022/08/16 01:46:07;;;;;;;13.27;8.30;;;21.40;81.50;;;;;;5095582;28;20019;-77
2022/08/16 01:51:40;;;;;;;10.70;8.57;;;21.40;82.30;;;;;;5038902;28;20088;-79
2022/08/16 01:54:06;;;;;;;10.55;8.07;;;21.30;82.80;;;;;;5074040;28;20036;-79
2022/08/16 01:56:32;;;;;;;11.98;9.18;;;21.30;82.80;;;;;;5049205;28;20112;-79
2022/08/16 01:59:01;;;;;;;14.63;8.13;;;21.30;83.10;;;;;;5071587;28;20025;-81
2022/08/16 02:01:28;;;;;;;9.70;8.68;;;21.20;83.30;;;;;;5063532;28;20044;-79
2022/08/16 02:03:54;;;;;;;12.45;9.02;;;21.20;83.50;;;;;;5056341;28;20118;-79
2022/08/16 02:06:20;;;;;;;12.52;8.65;;;21.10;83.60;;;;;;5038512;28;20049;-78
2022/08/16 02:08:46;;;;;;;10.13;8.52;;;21.10;83.70;;;;;;5054889;28;20037;-78
2022/08/16 02:11:13;;;;;;;11.98;8.57;;;21.00;83.60;;;;;;5038282;28;20035;-78
2022/08/16 02:13:40;;;;;;;12.52;9.57;;;21.00;83.70;;;;;;5056462;28;20060;-79
2022/08/16 02:16:06;;;;;;;11.43;10.23;;;21.00;83.60;;;;;;5054417;28;20033;-79
2022/08/16 02:18:31;;;;;;;14.32;10.45;;;20.90;83.60;;;;;;5055081;28;20025;-79
2022/08/16 02:20:57;;;;;;;14.07;11.13;;;20.90;83.60;;;;;;5056049;28;20480;-79
2022/08/16 02:23:23;;;;;;;13.40;10.70;;;20.80;83.60;;;;;;5054642;28;20071;-79
2022/08/16 02:25:49;;;;;;;15.98;10.32;;;20.70;83.80;;;;;;5055482;28;20374;-79
2022/08/16 02:28:15;;;;;;;12.43;9.82;;;20.70;84.00;;;;;;5054881;28;20021;-79
2022/08/16 02:30:41;;;;;;;12.82;10.00;;;20.70;84.30;;;;;;5055810;28;20033;-79
2022/08/16 02:33:08;;;;;;;13.77;11.13;;;20.70;84.50;;;;;;5054421;28;20025;-80
2022/08/16 02:35:34;;;;;;;14.07;10.82;;;20.60;84.70;;;;;;5054903;28;20033;-80
2022/08/16 02:38:00;;;;;;;16.35;10.68;;;20.60;85.00;;;;;;5055240;28;20051;-80
2022/08/16 02:40:26;;;;;;;14.93;11.50;;;20.60;85.20;;;;;;5037987;28;20041;-79
2022/08/16 02:42:53;;;;;;;14.70;11.05;;;20.60;85.50;;;;;;5055072;28;20021;-80
2022/08/16 02:45:22;;;;;;;14.20;10.80;;;20.50;85.60;;;;;;5073934;28;20021;-80
2022/08/16 02:47:48;;;;;;;13.63;10.70;;;20.50;85.70;;;;;;5075890;28;20025;-80
2022/08/16 02:50:14;;;;;;;14.82;10.98;;;20.50;85.90;;;;;;5074092;28;20089;-79
2022/08/16 02:52:39;;;;;;;13.80;10.75;;;20.40;85.90;;;;;;5073903;28;20115;-79
2022/08/16 02:55:06;;;;;;;14.25;11.18;;;20.40;85.90;;;;;;5073693;28;20111;-80
2022/08/16 02:57:32;;;;;;;16.38;10.75;;;20.40;86.00;;;;;;5073329;28;20037;-80
2022/08/16 02:59:58;;;;;;;13.18;10.63;;;20.30;86.20;;;;;;5041108;28;20036;-80
2022/08/16 03:02:24;;;;;;;14.52;11.57;;;20.40;86.30;;;;;;5073899;28;20040;-79
2022/08/16 03:04:50;;;;;;;15.00;11.20;;;20.30;86.50;;;;;;5057581;28;20373;-80
2022/08/16 03:07:18;;;;;;;14.82;12.20;;;20.30;86.70;;;;;;5075607;28;20020;-80
2022/08/16 03:09:44;;;;;;;14.35;12.63;;;20.30;86.80;;;;;;5057632;28;20060;-80
2022/08/16 03:12:10;;;;;;;15.63;12.23;;;20.30;87.10;;;;;;5057094;28;20032;-80
2022/08/16 03:14:36;;;;;;;14.57;12.57;;;20.30;87.20;;;;;;5074643;28;20082;-79
2022/08/16 03:17:02;;;;;;;18.83;14.00;;;20.20;87.20;;;;;;5073724;28;20080;-79
2022/08/16 03:19:30;;;;;;;16.80;11.88;;;20.20;87.50;;;;;;5073487;28;20028;-79
2022/08/16 03:21:56;;;;;;;14.35;12.65;;;20.20;87.80;;;;;;5073485;28;20417;-79
2022/08/16 03:24:22;;;;;;;17.33;14.30;;;20.10;87.90;;;;;;5072888;28;20527;-79
2022/08/16 03:26:47;;;;;;;21.17;15.15;;;20.20;88.10;;;;;;5073598;28;20028;-79
2022/08/16 03:29:13;;;;;;;19.35;14.23;;;20.20;88.20;;;;;;5073414;28;20048;-79
2022/08/16 03:31:38;;;;;;;18.05;14.43;;;20.20;88.20;;;;;;5057011;28;20028;-80
2022/08/16 03:34:04;;;;;;;21.25;14.65;;;20.10;88.20;;;;;;5056524;28;20056;-79
2022/08/16 03:36:30;;;;;;;19.00;14.38;;;20.10;88.30;;;;;;5073274;28;20463;-79
2022/08/16 03:38:55;;;;;;;21.90;15.43;;;20.10;88.50;;;;;;5073372;28;20098;-79
2022/08/16 03:41:22;;;;;;;17.77;14.73;;;20.10;88.50;;;;;;5072821;28;20024;-79
2022/08/16 03:43:48;;;;;;;19.58;15.57;;;20.10;88.60;;;;;;5040310;28;20028;-79
2022/08/16 03:46:14;;;;;;;17.98;15.60;;;20.00;88.60;;;;;;5056451;28;20032;-81
2022/08/16 03:48:40;;;;;;;20.50;15.18;;;20.00;88.70;;;;;;5072434;28;20033;-79
2022/08/16 03:51:09;;;;;;;19.73;16.45;;;20.00;88.90;;;;;;5072879;28;20501;-79
2022/08/16 03:53:35;;;;;;;19.13;16.42;;;20.00;89.10;;;;;;5072848;28;20074;-79
2022/08/16 03:56:02;;;;;;;18.23;15.63;;;20.00;89.20;;;;;;5073489;28;20028;-79
2022/08/16 03:58:28;;;;;;;21.08;17.63;;;20.00;89.30;;;;;;5056417;28;20039;-79
2022/08/16 04:00:54;;;;;;;18.30;15.30;;;19.90;89.30;;;;;;5073103;28;20469;-80
2022/08/16 04:03:20;;;;;;;18.17;15.95;;;19.90;89.50;;;;;;5072575;28;20377;-80
2022/08/16 04:05:47;;;;;;;21.30;18.67;;;19.90;89.50;;;;;;5072907;28;20384;-79
2022/08/16 04:08:13;;;;;;;22.55;18.08;;;19.80;89.50;;;;;;5072447;28;20055;-79
2022/08/16 04:10:39;;;;;;;20.48;17.58;;;19.80;89.60;;;;;;5072189;28;20117;-80
2022/08/16 04:13:05;;;;;;;21.25;18.35;;;19.80;89.60;;;;;;5073660;28;20067;-79
2022/08/16 04:15:31;;;;;;;24.27;18.58;;;19.80;89.70;;;;;;5056191;28;20056;-80
2022/08/16 04:18:00;;;;;;;19.90;17.25;;;19.80;89.80;;;;;;5072405;28;20036;-80
2022/08/16 04:20:26;;;;;;;24.15;18.58;;;19.80;89.90;;;;;;5073748;28;20114;-79
2022/08/16 04:22:52;;;;;;;24.10;18.67;;;19.80;90.00;;;;;;5073883;28;20060;-80
2022/08/16 04:25:18;;;;;;;21.05;18.42;;;19.80;90.10;;;;;;5071655;28;20021;-80
2022/08/16 04:27:44;;;;;;;20.65;17.80;;;19.70;90.10;;;;;;5073805;28;20031;-80
2022/08/16 04:30:13;;;;;;;22.95;19.00;;;19.70;90.20;;;;;;5073773;28;20028;-80
2022/08/16 04:32:40;;;;;;;21.83;17.90;;;19.70;90.30;;;;;;5073375;28;20103;-80
2022/08/16 04:35:08;;;;;;;23.27;17.88;;;19.70;90.30;;;;;;5073541;28;20114;-80
2022/08/16 04:37:34;;;;;;;25.15;18.35;;;19.60;90.30;;;;;;5072242;28;20500;-80
2022/08/16 04:39:59;;;;;;;22.40;18.88;;;19.60;90.30;;;;;;5055733;28;20041;-80
2022/08/16 04:42:26;;;;;;;21.67;19.05;;;19.60;90.40;;;;;;5071856;28;20028;-80
2022/08/16 04:44:54;;;;;;;20.80;18.13;;;19.60;90.40;;;;;;5072447;28;20035;-81
2022/08/16 04:47:20;;;;;;;22.45;18.55;;;19.60;90.50;;;;;;5071897;28;20020;-81
2022/08/16 04:49:46;;;;;;;22.20;19.00;;;19.50;90.50;;;;;;5073734;28;20101;-80
2022/08/16 04:52:12;;;;;;;22.45;18.48;;;19.60;90.60;;;;;;5065386;28;20053;-80
2022/08/16 04:54:39;;;;;;;20.55;17.52;;;19.50;90.60;;;;;;5070882;28;20040;-80
2022/08/16 04:57:05;;;;;;;20.98;18.20;;;19.50;90.60;;;;;;5052756;28;20140;-80
2022/08/16 04:59:31;;;;;;;24.67;18.60;;;19.50;90.60;;;;;;5070871;28;20587;-80
2022/08/16 05:01:56;;;;;;;23.75;17.85;;;19.50;90.60;;;;;;5070554;28;20130;-80
2022/08/16 05:04:23;;;;;;;21.77;19.20;;;19.60;90.70;;;;;;5063251;28;20024;-79
2022/08/16 05:06:50;;;;;;;22.13;17.73;;;19.50;90.70;;;;;;5066783;28;20419;-80
2022/08/16 05:09:17;;;;;;;19.35;16.85;;;19.50;90.70;;;;;;5070453;28;20048;-85
2022/08/16 05:11:44;;;;;;;23.10;19.38;;;19.50;90.70;;;;;;5070292;28;20051;-83
2022/08/16 05:14:10;;;;;;;22.08;18.52;;;19.50;90.80;;;;;;5069508;28;20035;-83
2022/08/16 05:16:36;;;;;;;22.08;17.70;;;19.60;90.80;;;;;;5061253;28;20116;-84
2022/08/16 05:19:03;;;;;;;20.13;17.25;;;19.60;90.80;;;;;;5072463;28;20143;-83
2022/08/16 05:21:30;;;;;;;22.42;17.60;;;19.60;90.80;;;;;;5073917;28;20039;-83
2022/08/16 05:23:56;;;;;;;22.30;18.92;;;19.60;90.80;;;;;;5065921;28;20536;-83
2022/08/16 05:26:24;;;;;;;20.80;18.27;;;19.60;90.80;;;;;;5046603;28;20025;-84
2022/08/16 05:28:50;;;;;;;23.40;19.13;;;19.60;90.80;;;;;;5062795;28;20032;-84
2022/08/16 05:31:16;;;;;;;22.38;18.50;;;19.60;90.80;;;;;;5045070;28;20107;-83
2022/08/16 05:33:42;;;;;;;25.38;18.17;;;19.70;90.80;;;;;;5067159;28;20400;-84
2022/08/16 05:36:09;;;;;;;20.33;17.35;;;19.70;90.80;;;;;;5062910;28;20048;-84
2022/08/16 05:38:35;;;;;;;20.23;17.33;;;19.70;90.80;;;;;;5063443;28;20033;-83
2022/08/16 05:41:02;;;;;;;19.58;16.83;;;19.80;90.80;;;;;;5063626;28;20033;-84
2022/08/16 05:43:28;;;;;;;21.75;16.17;;;19.80;90.80;;;;;;5055548;28;20032;-84
2022/08/16 05:45:57;;;;;;;17.73;15.50;;;19.80;90.70;;;;;;5061754;28;20469;-84
2022/08/16 05:48:23;;;;;;;21.50;16.90;;;19.80;90.70;;;;;;5045760;28;20074;-83
2022/08/16 05:50:49;;;;;;;21.00;17.08;;;19.90;90.60;;;;;;5027231;28;20029;-84
2022/08/16 05:53:16;;;;;;;21.52;16.63;;;19.90;90.60;;;;;;5061152;28;20025;-86
2022/08/16 05:55:42;;;;;;;23.45;16.50;;;19.90;90.60;;;;;;5061739;28;20020;-86
2022/08/16 05:58:08;;;;;;;23.02;18.13;;;19.90;90.50;;;;;;5046253;28;20068;-86
2022/08/16 06:00:33;;;;;;;20.13;17.20;;;20.00;90.60;;;;;;5048880;28;20041;-86
2022/08/16 06:02:59;;;;;;;21.02;17.45;;;20.00;90.60;;;;;;5069347;28;20037;-85
2022/08/16 06:05:25;;;;;;;21.35;16.55;;;20.00;90.60;;;;;;5068873;28;20025;-86
2022/08/16 06:07:51;;;;;;;22.65;18.02;;;20.10;90.60;;;;;;5035313;28;20029;-85
2022/08/16 06:10:18;;;;;;;20.63;18.45;;;20.10;90.60;;;;;;5064181;28;20438;-85
2022/08/16 06:12:43;;;;;;;24.05;19.20;;;20.10;90.60;;;;;;5059575;28;20060;-86
2022/08/16 06:15:15;;;;;;;21.60;19.23;;;20.20;90.60;;;;;;5060587;28;20425;-86
2022/08/16 06:17:42;;;;;;;20.95;18.48;;;20.20;90.60;;;;;;5061266;28;20037;-86
2022/08/16 06:20:08;;;;;;;21.73;18.27;;;20.20;90.60;;;;;;5073190;28;20039;-85
2022/08/16 06:22:37;;;;;;;22.73;20.25;;;20.20;90.60;;;;;;5068712;28;20086;-83
2022/08/16 06:25:03;;;;;;;23.40;19.48;;;20.30;90.70;;;;;;5073748;28;20510;-86
2022/08/16 06:27:29;;;;;;;21.88;18.67;;;20.30;90.60;;;;;;5073515;28;20039;-85
2022/08/16 06:29:54;;;;;;;21.33;19.02;;;20.30;90.60;;;;;;5057733;28;20032;-84
2022/08/16 06:32:20;;;;;;;20.10;17.88;;;20.30;90.60;;;;;;5057039;28;20033;-85
2022/08/16 06:34:46;;;;;;;22.02;18.75;;;20.30;90.60;;;;;;5074958;28;20472;-86
2022/08/16 06:37:11;;;;;;;19.95;17.60;;;20.30;90.50;;;;;;5058006;28;20036;-85
2022/08/16 06:39:38;;;;;;;23.63;18.00;;;20.40;90.50;;;;;;5058178;28;20108;-87
2022/08/16 06:42:04;;;;;;;23.52;18.77;;;20.40;90.50;;;;;;5074587;28;20043;-84
2022/08/16 06:44:29;;;;;;;21.23;18.88;;;20.50;90.50;;;;;;5074651;28;20048;-84
2022/08/16 06:46:55;;;;;;;20.48;18.30;;;20.50;90.50;;;;;;5058012;28;20025;-84
2022/08/16 06:49:21;;;;;;;21.73;18.90;;;20.50;90.40;;;;;;5041384;28;20406;-86
2022/08/16 06:51:46;;;;;;;19.75;16.92;;;20.60;90.30;;;;;;5075202;28;20055;-86
2022/08/16 06:54:12;;;;;;;23.48;18.45;;;20.60;90.20;;;;;;5040639;28;20115;-83
2022/08/16 06:56:38;;;;;;;19.00;16.92;;;20.70;90.10;;;;;;5074416;28;20102;-84
2022/08/16 06:59:03;;;;;;;23.23;20.10;;;20.70;90.00;;;;;;5057015;28;20443;-84
2022/08/16 07:01:29;;;;;;;21.90;18.85;;;20.70;89.60;;;;;;5056250;28;20064;-83
2022/08/16 07:03:55;;;;;;;20.08;17.70;;;20.70;89.50;;;;;;5020877;28;20053;-84
2022/08/16 07:06:21;;;;;;;23.45;18.45;;;20.80;89.40;;;;;;5054984;28;20071;-84
2022/08/16 07:08:47;;;;;;;21.83;18.15;;;20.80;89.20;;;;;;5021157;28;20025;-83
2022/08/16 07:11:15;;;;;;;21.45;18.13;;;20.80;89.10;;;;;;5037789;28;20354;-82
2022/08/16 07:13:41;;;;;;;20.42;18.00;;;20.90;88.90;;;;;;5053610;28;20079;-82
2022/08/16 07:16:13;;;;;;;19.70;17.70;;;21.00;88.60;;;;;;5055114;28;20029;-81
2022/08/16 07:18:40;;;;;;;19.15;16.98;;;21.00;88.40;;;;;;5053732;28;20025;-83
2022/08/16 07:21:07;;;;;;;21.27;17.20;;;21.00;88.20;;;;;;5053648;28;20032;-85
2022/08/16 07:23:33;;;;;;;19.77;17.63;;;21.00;88.00;;;;;;5036488;28;20025;-84
2022/08/16 07:25:59;;;;;;;19.35;15.77;;;21.10;87.80;;;;;;5057332;28;20033;-86
2022/08/16 07:28:24;;;;;;;18.40;15.52;;;21.20;87.80;;;;;;5064521;28;20052;-85
2022/08/16 07:30:50;;;;;;;20.65;17.42;;;21.20;87.60;;;;;;5048130;28;20127;-85
2022/08/16 07:33:17;;;;;;;20.13;17.35;;;21.30;87.10;;;;;;5072037;28;20028;-83
2022/08/16 07:35:43;;;;;;;18.60;16.45;;;21.30;86.90;;;;;;5071749;28;20477;-85
2022/08/16 07:38:09;;;;;;;18.17;16.23;;;21.40;86.70;;;;;;5072173;28;20036;-85
2022/08/16 07:40:36;;;;;;;18.05;15.93;;;21.40;86.50;;;;;;5073756;28;20373;-85
2022/08/16 07:43:02;;;;;;;16.58;14.68;;;21.50;86.30;;;;;;5074412;28;20021;-84
2022/08/16 07:45:28;;;;;;;17.33;15.52;;;21.50;86.00;;;;;;5073433;28;20036;-86
2022/08/16 07:47:54;;;;;;;18.35;15.38;;;21.60;85.70;;;;;;5072037;28;20582;-88
2022/08/16 07:50:20;;;;;;;16.40;14.10;;;21.70;85.40;;;;;;5054251;28;20039;-92
2022/08/16 07:52:45;;;;;;;15.75;14.15;;;21.70;84.70;;;;;;5074325;28;20050;-91
2022/08/16 07:55:13;;;;;;;16.77;14.75;;;21.80;84.40;;;;;;5074758;28;20059;-94
2022/08/16 07:57:40;;;;;;;18.27;14.35;;;21.80;83.80;;;;;;5089940;28;20040;-87
2022/08/16 08:00:07;;;;;;;18.63;12.52;;;21.90;83.30;;;;;;5067389;28;20021;-86
2022/08/16 08:02:33;;;;;;;16.92;13.48;;;22.00;82.90;;;;;;5073371;28;20020;-83
2022/08/16 08:04:59;;;;;;;15.80;12.82;;;22.00;82.20;;;;;;5056146;28;20434;-84
2022/08/16 08:07:25;;;;;;;15.25;13.27;;;22.10;82.10;;;;;;5073204;28;20036;-83
2022/08/16 08:09:51;;;;;;;13.88;11.32;;;22.20;82.00;;;;;;5072700;28;20111;-83
2022/08/16 08:12:18;;;;;;;15.13;12.48;;;22.20;81.90;;;;;;5072673;28;20040;-82
2022/08/16 08:14:45;;;;;;;14.10;11.43;;;22.30;81.00;;;;;;5056360;28;20029;-83
2022/08/16 08:17:11;;;;;;;13.55;11.45;;;22.40;80.20;;;;;;5066263;28;20041;-81
2022/08/16 08:19:37;;;;;;;18.13;10.57;;;22.40;79.40;;;;;;5036342;28;20058;-84
2022/08/16 08:22:04;;;;;;;13.75;10.25;;;22.50;79.10;;;;;;5052294;28;20049;-82
2022/08/16 08:24:36;;;;;;;14.35;10.20;;;22.70;78.70;;;;;;5035749;28;20027;-86
2022/08/16 08:27:04;;;;;;;13.82;10.77;;;22.70;77.90;;;;;;5060021;28;20036;-84
2022/08/16 08:29:30;;;;;;;11.25;10.05;;;22.70;77.40;;;;;;5072628;28;20037;-86
2022/08/16 08:31:57;;;;;;;14.80;11.55;;;22.80;77.60;;;;;;5073609;28;20021;-86
2022/08/16 08:34:23;;;;;;;15.93;10.43;;;22.90;77.30;;;;;;5069113;28;20067;-91
2022/08/16 08:36:49;;;;;;;12.82;11.07;;;22.90;77.00;;;;;;5062954;28;20047;-91
2022/08/16 08:39:15;;;;;;;14.48;12.18;;;23.00;76.80;;;;;;5027896;28;20024;-91
2022/08/16 08:41:42;;;;;;;18.00;12.18;;;23.00;76.60;;;;;;5062425;28;20033;-91
2022/08/16 08:44:08;;;;;;;14.50;10.90;;;23.10;76.60;;;;;;5076231;28;20503;-90
2022/08/16 08:46:34;;;;;;;13.45;9.65;;;23.20;76.70;;;;;;5060569;28;20032;-92
2022/08/16 08:48:59;;;;;;;13.68;11.27;;;23.20;76.80;;;;;;5073241;28;20396;-92
2022/08/16 08:51:26;;;;;;;11.85;9.68;;;23.30;76.80;;;;;;5051152;28;20548;-91
2022/08/16 08:53:52;;;;;;;12.55;10.73;;;23.40;76.80;;;;;;5046473;28;20029;-90
2022/08/16 08:56:18;;;;;;;13.35;10.80;;;23.40;76.60;;;;;;5052845;28;20090;-88
2022/08/16 08:58:44;;;;;;;14.30;10.20;;;23.50;76.60;;;;;;5072415;28;20048;-86
2022/08/16 09:01:10;;;;;;;15.52;12.40;;;23.60;76.60;;;;;;5072331;28;20425;-88
2022/08/16 09:03:37;;;;;;;13.50;11.25;;;23.60;76.40;;;;;;5056271;28;20056;-89
2022/08/16 09:06:04;;;;;;;12.77;9.18;;;23.70;76.10;;;;;;5071853;28;20025;-86
2022/08/16 09:08:31;;;;;;;12.23;9.25;;;23.70;75.90;;;;;;5071650;28;20537;-88
2022/08/16 09:10:58;;;;;;;11.32;9.43;;;23.80;75.70;;;;;;5072254;28;20031;-89
2022/08/16 09:13:25;;;;;;;14.20;9.07;;;23.90;75.20;;;;;;5055815;28;20032;-88
2022/08/16 09:15:54;;;;;;;14.32;9.32;;;24.00;75.00;;;;;;5073760;28;20023;-88
2022/08/16 09:18:22;;;;;;;16.85;9.95;;;24.10;74.60;;;;;;5072597;28;20032;-90
2022/08/16 09:20:51;;;;;;;9.95;8.27;;;24.20;74.40;;;;;;5071961;28;20357;-88
2022/08/16 09:23:18;;;;;;;16.45;9.60;;;24.20;74.20;;;;;;5073617;28;20112;-87
2022/08/16 09:25:43;;;;;;;11.63;8.70;;;24.40;73.60;;;;;;5072727;28;20024;-88
2022/08/16 09:28:09;;;;;;;9.82;7.90;;;24.40;73.30;;;;;;5056812;28;20028;-90
2022/08/16 09:30:36;;;;;;;12.30;8.40;;;24.50;73.30;;;;;;5072635;28;20028;-88
2022/08/16 09:33:03;;;;;;;9.98;8.27;;;24.70;73.00;;;;;;5062981;28;20044;-81
2022/08/16 09:35:29;;;;;;;12.30;8.98;;;24.80;72.60;;;;;;5081747;28;20021;-92
2022/08/16 09:37:56;;;;;;;11.13;8.75;;;24.80;71.70;;;;;;5048637;28;20032;-92
2022/08/16 09:40:22;;;;;;;12.68;8.85;;;24.90;71.30;;;;;;5068386;28;20028;-84
2022/08/16 09:42:48;;;;;;;11.02;7.30;;;25.00;71.00;;;;;;5074024;28;20488;-94
2022/08/16 09:45:14;;;;;;;11.30;7.20;;;25.10;70.90;;;;;;5058023;28;20524;-91
2022/08/16 09:47:41;;;;;;;9.63;8.02;;;25.30;70.60;;;;;;5077158;28;20016;-89
2022/08/16 09:50:08;;;;;;;12.70;8.32;;;25.30;69.70;;;;;;5059730;28;20059;-87
2022/08/16 09:52:36;;;;;;;8.85;7.45;;;25.40;69.10;;;;;;5076886;28;20052;-87
2022/08/16 09:55:08;;;;;;;9.52;7.07;;;25.40;68.90;;;;;;5059219;28;20028;-88
2022/08/16 09:57:35;;;;;;;10.30;7.93;;;25.40;68.60;;;;;;5060449;28;20040;-87
2022/08/16 10:00:02;;;;;;;10.32;6.30;;;25.40;68.30;;;;;;5075194;28;20031;-88
2022/08/16 10:02:28;;;;;;;10.10;7.72;;;25.40;68.40;;;;;;5075574;28;20028;-83
2022/08/16 10:04:56;;;;;;;10.07;8.00;;;25.60;68.30;;;;;;5058916;28;20528;-85
2022/08/16 10:07:23;;;;;;;9.68;6.70;;;25.60;68.10;;;;;;5076967;28;20032;-85
2022/08/16 10:09:49;;;;;;;11.32;8.07;;;25.70;67.80;;;;;;5069920;28;20020;-90
2022/08/16 10:14:58;;;;;;;8.07;6.60;;;25.90;67.30;;;;;;5075518;28;20531;-88
2022/08/16 10:17:24;;;;;;;13.25;8.30;;;26.00;67.10;;;;;;5058828;28;20044;-90
2022/08/16 10:19:51;;;;;;;12.10;7.55;;;26.20;66.40;;;;;;5076021;28;20029;-88
2022/08/16 10:22:17;;;;;;;10.27;7.32;;;26.40;66.10;;;;;;5076218;28;20033;-88
2022/08/16 10:24:45;;;;;;;10.63;7.45;;;26.50;65.60;;;;;;5075132;28;20037;-87
2022/08/16 10:27:11;;;;;;;8.82;7.18;;;26.70;65.60;;;;;;5075715;28;20115;-88
2022/08/16 10:29:37;;;;;;;9.65;6.63;;;26.90;65.00;;;;;;5075134;28;20104;-91
2022/08/16 10:32:03;;;;;;;10.95;6.72;;;27.20;64.60;;;;;;5059106;28;20029;-88
2022/08/16 10:34:29;;;;;;;9.98;6.30;;;27.50;63.90;;;;;;5058375;28;20052;-87
2022/08/16 10:36:55;;;;;;;9.60;6.97;;;27.90;63.80;;;;;;5058002;28;20476;-88
2022/08/16 10:39:22;;;;;;;9.18;6.35;;;28.30;63.70;;;;;;5074695;28;20033;-93
2022/08/16 10:41:47;;;;;;;10.50;6.75;;;28.70;63.30;;;;;;5065219;28;20057;-86
2022/08/16 10:44:13;;;;;;;8.45;5.13;;;29.20;61.80;;;;;;5054674;28;20067;-85
2022/08/16 10:46:40;;;;;;;9.77;5.40;;;29.40;61.30;;;;;;5037567;28;20028;-85
2022/08/16 10:49:06;;;;;;;6.82;4.43;;;29.50;60.80;;;;;;5038164;28;20043;-87
2022/08/16 10:51:32;;;;;;;5.90;4.18;;;29.60;60.40;;;;;;5057248;28;20045;-86
2022/08/16 10:53:58;;;;;;;5.65;4.30;;;29.60;59.80;;;;;;5073910;28;20117;-88
2022/08/16 10:56:24;;;;;;;7.38;4.50;;;29.70;59.30;;;;;;5047920;28;20093;-85
2022/08/16 10:58:51;;;;;;;8.13;4.72;;;29.80;58.80;;;;;;5055209;28;20066;-85
2022/08/16 11:01:16;;;;;;;8.00;4.63;;;29.90;58.40;;;;;;5055838;28;20029;-85
2022/08/16 11:03:42;;;;;;;8.80;3.83;;;30.00;58.00;;;;;;5054374;28;20489;-87
2022/08/16 11:06:08;;;;;;;7.47;4.53;;;30.10;57.50;;;;;;5056171;28;20087;-85
2022/08/16 11:08:36;;;;;;;5.93;4.07;;;30.20;56.90;;;;;;5074934;28;20060;-84
2022/08/16 11:11:05;;;;;;;6.70;4.25;;;30.30;56.70;;;;;;5054499;28;20102;-85
2022/08/16 11:13:31;;;;;;;6.30;3.92;;;30.40;56.00;;;;;;5057599;28;20492;-85
2022/08/16 11:15:57;;;;;;;6.50;3.80;;;30.50;55.60;;;;;;5074492;28;20111;-89
2022/08/16 11:18:24;;;;;;;5.75;3.58;;;30.60;55.10;;;;;;5075590;28;20044;-85
2022/08/16 11:20:49;;;;;;;6.60;4.35;;;30.70;55.00;;;;;;5058284;28;20035;-85
2022/08/16 11:23:16;;;;;;;6.00;4.07;;;30.80;54.80;;;;;;5058404;28;20032;-85
2022/08/16 11:25:41;;;;;;;7.68;5.05;;;30.90;54.50;;;;;;5074978;28;20033;-85
2022/08/16 11:28:08;;;;;;;6.75;4.03;;;31.00;54.30;;;;;;5075787;28;20046;-85
2022/08/16 11:30:35;;;;;;;5.85;3.72;;;31.00;54.10;;;;;;5064996;28;20447;-84
2022/08/16 11:33:01;;;;;;;6.97;4.25;;;31.00;54.00;;;;;;5064174;28;20051;-86
2022/08/16 11:35:30;;;;;;;5.65;3.83;;;31.10;53.90;;;;;;5063170;28;20497;-85
2022/08/16 11:38:03;;;;;;;8.82;4.25;;;31.20;53.70;;;;;;5073071;28;20075;-86
2022/08/16 11:40:37;;;;;;;5.78;3.88;;;31.30;53.80;;;;;;5065973;28;20071;-86
2022/08/16 11:43:05;;;;;;;8.27;3.90;;;31.40;53.80;;;;;;5073326;28;20020;-85
2022/08/16 11:45:32;;;;;;;6.00;3.92;;;31.60;53.60;;;;;;5092378;28;20073;-88
2022/08/16 11:47:59;;;;;;;5.63;3.67;;;31.70;53.50;;;;;;5078066;28;20021;-88
2022/08/16 11:50:25;;;;;;;5.47;3.38;;;31.90;53.00;;;;;;5066855;28;20024;-83
2022/08/16 11:52:51;;;;;;;8.57;4.18;;;32.10;52.50;;;;;;5073049;28;20052;-84
2022/08/16 11:55:17;;;;;;;8.13;4.65;;;32.30;52.10;;;;;;5076086;28;20131;-85
2022/08/16 11:57:43;;;;;;;10.63;3.88;;;32.40;52.00;;;;;;5056611;28;20089;-83
2022/08/16 12:00:13;;;;;;;7.45;3.65;;;32.60;52.00;;;;;;5057384;28;20044;-86
2022/08/16 12:02:38;;;;;;;5.63;3.90;;;32.80;51.70;;;;;;5068280;28;20033;-85
2022/08/16 12:05:06;;;;;;;5.70;4.50;;;33.00;51.50;;;;;;5037949;28;20036;-83
2022/08/16 12:07:32;;;;;;;7.85;4.07;;;33.10;51.20;;;;;;5052694;28;20132;-85
2022/08/16 12:09:59;;;;;;;9.52;4.25;;;33.10;50.40;;;;;;5054336;28;20437;-82
2022/08/16 12:12:25;;;;;;;4.97;3.70;;;33.20;50.20;;;;;;5052631;28;20048;-85
2022/08/16 12:14:51;;;;;;;6.97;3.75;;;33.20;50.20;;;;;;5035988;28;20492;-88
2022/08/16 12:17:18;;;;;;;10.18;4.63;;;33.30;49.90;;;;;;5061765;28;20062;-93
2022/08/16 12:19:44;;;;;;;6.22;4.18;;;33.30;49.70;;;;;;5072962;28;20029;-85
2022/08/16 12:22:10;;;;;;;7.78;5.05;;;33.40;49.70;;;;;;5089345;28;20024;-84
2022/08/16 12:24:36;;;;;;;7.88;4.82;;;33.40;49.70;;;;;;5088869;28;20029;-92
2022/08/16 12:27:04;;;;;;;7.47;3.85;;;33.40;49.50;;;;;;5052660;28;20048;-90
2022/08/16 12:29:30;;;;;;;7.25;3.97;;;33.20;49.30;;;;;;5036894;28;20526;-92
2022/08/16 12:31:57;;;;;;;5.55;3.85;;;33.00;49.50;;;;;;5071548;28;20074;-82
2022/08/16 12:34:23;;;;;;;6.90;4.72;;;32.80;49.60;;;;;;5072386;28;20024;-82
2022/08/16 12:36:49;;;;;;;5.07;3.55;;;32.60;49.70;;;;;;5073453;28;20044;-83